sensor_id;sensor_type;location;lat;lon;timestamp;P1;durP1;ratioP1;P2;durP2;ratioP2
57615;SDS011;43816;52.054;-9.494;2024-01-07T00:00:12;14.97;;;13.87;;
57615;SDS011;43816;52.054;-9.494;2024-01-07T00:00:23;15.15;;;13.98;;
57615;SDS011;43816;52.054;-9.494;2024-01-07T00:00:36;14.95;;;13.75;;
57615;SDS011;43816;52.054;-9.494;2024-01-07T00:00:46;15.03;;;13.83;;
57615;SDS011;43816;52.054;-9.494;2024-01-07T00:00:59;14.98;;;13.77;;
57615;SDS011;43816;52.054;-9.494;2024-01-07T00:01:10;15.10;;;13.85;;
57615;SDS011;43816;52.054;-9.494;2024-01-07T00:01:20;15.13;;;13.93;;
57615;SDS011;43816;52.054;-9.494;2024-01-07T00:01:31;15.20;;;14.00;;
57615;SDS011;43816;52.054;-9.494;2024-01-07T00:01:47;15.40;;;14.20;;
57615;SDS011;43816;52.054;-9.494;2024-01-07T00:01:58;15.13;;;13.93;;
57615;SDS011;43816;52.054;-9.494;2024-01-07T00:02:08;14.80;;;13.70;;
57615;SDS011;43816;52.054;-9.494;2024-01-07T00:02:19;14.60;;;13.50;;
57615;SDS011;43816;52.054;-9.494;2024-01-07T00:02:41;14.90;;;13.70;;
57615;SDS011;43816;52.054;-9.494;2024-01-07T00:02:51;14.68;;;13.55;;
57615;SDS011;43816;52.054;-9.494;2024-01-07T00:03:02;14.63;;;13.53;;
57615;SDS011;43816;52.054;-9.494;2024-01-07T00:03:12;14.83;;;13.67;;
57615;SDS011;43816;52.054;-9.494;2024-01-07T00:03:22;14.75;;;13.57;;
57615;SDS011;43816;52.054;-9.494;2024-01-07T00:03:35;14.50;;;13.40;;
57615;SDS011;43816;52.054;-9.494;2024-01-07T00:03:53;14.45;;;13.35;;
57615;SDS011;43816;52.054;-9.494;2024-01-07T00:04:14;15.27;;;14.07;;
57615;SDS011;43816;52.054;-9.494;2024-01-07T00:04:25;14.65;;;13.50;;
57615;SDS011;43816;52.054;-9.494;2024-01-07T00:04:35;14.30;;;13.20;;
57615;SDS011;43816;52.054;-9.494;2024-01-07T00:04:46;14.20;;;13.10;;
57615;SDS011;43816;52.054;-9.494;2024-01-07T00:04:56;14.30;;;13.20;;
57615;SDS011;43816;52.054;-9.494;2024-01-07T00:05:06;14.40;;;13.33;;
57615;SDS011;43816;52.054;-9.494;2024-01-07T00:05:17;14.48;;;13.38;;
57615;SDS011;43816;52.054;-9.494;2024-01-07T00:05:27;14.50;;;13.40;;
57615;SDS011;43816;52.054;-9.494;2024-01-07T00:05:40;14.45;;;13.35;;
57615;SDS011;43816;52.054;-9.494;2024-01-07T00:05:50;13.75;;;12.75;;
57615;SDS011;43816;52.054;-9.494;2024-01-07T00:06:01;13.33;;;12.33;;
57615;SDS011;43816;52.054;-9.494;2024-01-07T00:06:11;13.30;;;12.30;;
57615;SDS011;43816;52.054;-9.494;2024-01-07T00:06:21;13.60;;;12.57;;
57615;SDS011;43816;52.054;-9.494;2024-01-07T00:06:32;13.83;;;12.73;;
57615;SDS011;43816;52.054;-9.494;2024-01-07T00:06:42;14.10;;;13.00;;
57615;SDS011;43816;52.054;-9.494;2024-01-07T00:06:52;14.30;;;13.20;;
57615;SDS011;43816;52.054;-9.494;2024-01-07T00:07:03;14.27;;;13.23;;
57615;SDS011;43816;52.054;-9.494;2024-01-07T00:07:19;14.23;;;13.23;;
57615;SDS011;43816;52.054;-9.494;2024-01-07T00:07:32;14.23;;;13.23;;
57615;SDS011;43816;52.054;-9.494;2024-01-07T00:07:42;14.43;;;13.38;;
57615;SDS011;43816;52.054;-9.494;2024-01-07T00:07:52;14.83;;;13.73;;
57615;SDS011;43816;52.054;-9.494;2024-01-07T00:08:03;15.17;;;14.07;;
57615;SDS011;43816;52.054;-9.494;2024-01-07T00:08:13;15.32;;;14.13;;
57615;SDS011;43816;52.054;-9.494;2024-01-07T00:08:26;14.98;;;13.80;;
57615;SDS011;43816;52.054;-9.494;2024-01-07T00:08:37;14.77;;;13.68;;
57615;SDS011;43816;52.054;-9.494;2024-01-07T00:08:47;14.40;;;13.33;;
57615;SDS011;43816;52.054;-9.494;2024-01-07T00:08:57;14.17;;;13.10;;
57615;SDS011;43816;52.054;-9.494;2024-01-07T00:09:13;14.03;;;12.93;;
57615;SDS011;43816;52.054;-9.494;2024-01-07T00:09:27;13.90;;;12.82;;
57615;SDS011;43816;52.054;-9.494;2024-01-07T00:09:37;13.90;;;12.90;;
57615;SDS011;43816;52.054;-9.494;2024-01-07T00:09:47;13.97;;;12.97;;
57615;SDS011;43816;52.054;-9.494;2024-01-07T00:09:58;14.02;;;13.02;;
57615;SDS011;43816;52.054;-9.494;2024-01-07T00:10:08;14.17;;;13.17;;
57615;SDS011;43816;52.054;-9.494;2024-01-07T00:10:25;13.85;;;12.85;;
57615;SDS011;43816;52.054;-9.494;2024-01-07T00:10:35;13.70;;;12.70;;
57615;SDS011;43816;52.054;-9.494;2024-01-07T00:10:45;13.77;;;12.73;;
57615;SDS011;43816;52.054;-9.494;2024-01-07T00:10:56;13.75;;;12.75;;
57615;SDS011;43816;52.054;-9.494;2024-01-07T00:11:09;13.70;;;12.70;;
57615;SDS011;43816;52.054;-9.494;2024-01-07T00:11:23;13.68;;;12.63;;
57615;SDS011;43816;52.054;-9.494;2024-01-07T00:11:33;13.95;;;12.85;;
57615;SDS011;43816;52.054;-9.494;2024-01-07T00:11:43;14.27;;;13.10;;
57615;SDS011;43816;52.054;-9.494;2024-01-07T00:11:56;14.30;;;13.10;;
57615;SDS011;43816;52.054;-9.494;2024-01-07T00:12:10;14.35;;;13.15;;
57615;SDS011;43816;52.054;-9.494;2024-01-07T00:12:20;14.05;;;12.95;;
57615;SDS011;43816;52.054;-9.494;2024-01-07T00:12:33;13.70;;;12.70;;
57615;SDS011;43816;52.054;-9.494;2024-01-07T00:12:46;13.70;;;12.70;;
57615;SDS011;43816;52.054;-9.494;2024-01-07T00:12:58;13.68;;;12.68;;
57615;SDS011;43816;52.054;-9.494;2024-01-07T00:13:11;14.05;;;12.95;;
57615;SDS011;43816;52.054;-9.494;2024-01-07T00:13:22;14.15;;;13.05;;
57615;SDS011;43816;52.054;-9.494;2024-01-07T00:13:32;14.02;;;13.00;;
57615;SDS011;43816;52.054;-9.494;2024-01-07T00:13:52;14.18;;;13.07;;
57615;SDS011;43816;52.054;-9.494;2024-01-07T00:14:15;13.95;;;12.85;;
57615;SDS011;43816;52.054;-9.494;2024-01-07T00:14:26;14.30;;;13.20;;
57615;SDS011;43816;52.054;-9.494;2024-01-07T00:14:42;14.43;;;13.33;;
57615;SDS011;43816;52.054;-9.494;2024-01-07T00:14:52;14.20;;;13.15;;
57615;SDS011;43816;52.054;-9.494;2024-01-07T00:15:03;13.88;;;12.82;;
57615;SDS011;43816;52.054;-9.494;2024-01-07T00:15:16;13.80;;;12.73;;
57615;SDS011;43816;52.054;-9.494;2024-01-07T00:15:27;13.70;;;12.70;;
57615;SDS011;43816;52.054;-9.494;2024-01-07T00:15:37;13.57;;;12.57;;
57615;SDS011;43816;52.054;-9.494;2024-01-07T00:15:50;13.77;;;12.77;;
57615;SDS011;43816;52.054;-9.494;2024-01-07T00:16:01;13.93;;;12.93;;
57615;SDS011;43816;52.054;-9.494;2024-01-07T00:16:14;13.52;;;12.52;;
57615;SDS011;43816;52.054;-9.494;2024-01-07T00:16:30;13.35;;;12.35;;
57615;SDS011;43816;52.054;-9.494;2024-01-07T00:16:40;13.63;;;12.52;;
57615;SDS011;43816;52.054;-9.494;2024-01-07T00:16:51;13.50;;;12.50;;
57615;SDS011;43816;52.054;-9.494;2024-01-07T00:17:01;13.77;;;12.77;;
57615;SDS011;43816;52.054;-9.494;2024-01-07T00:17:11;13.68;;;12.68;;
57615;SDS011;43816;52.054;-9.494;2024-01-07T00:17:25;13.67;;;12.67;;
57615;SDS011;43816;52.054;-9.494;2024-01-07T00:17:38;13.25;;;12.25;;
57615;SDS011;43816;52.054;-9.494;2024-01-07T00:17:48;13.13;;;12.23;;
57615;SDS011;43816;52.054;-9.494;2024-01-07T00:17:58;13.07;;;12.17;;
57615;SDS011;43816;52.054;-9.494;2024-01-07T00:18:11;13.17;;;12.17;;
57615;SDS011;43816;52.054;-9.494;2024-01-07T00:18:21;13.10;;;12.10;;
57615;SDS011;43816;52.054;-9.494;2024-01-07T00:18:38;13.10;;;12.10;;
57615;SDS011;43816;52.054;-9.494;2024-01-07T00:18:48;13.00;;;12.07;;
57615;SDS011;43816;52.054;-9.494;2024-01-07T00:18:58;12.87;;;11.97;;
57615;SDS011;43816;52.054;-9.494;2024-01-07T00:19:14;12.93;;;12.02;;
57615;SDS011;43816;52.054;-9.494;2024-01-07T00:19:25;13.68;;;12.57;;
57615;SDS011;43816;52.054;-9.494;2024-01-07T00:19:38;14.27;;;13.07;;
57615;SDS011;43816;52.054;-9.494;2024-01-07T00:19:57;13.70;;;12.68;;
57615;SDS011;43816;52.054;-9.494;2024-01-07T00:20:08;13.02;;;12.02;;
57615;SDS011;43816;52.054;-9.494;2024-01-07T00:20:21;13.18;;;12.18;;
57615;SDS011;43816;52.054;-9.494;2024-01-07T00:20:34;13.35;;;12.35;;
57615;SDS011;43816;52.054;-9.494;2024-01-07T00:20:47;13.38;;;12.38;;
57615;SDS011;43816;52.054;-9.494;2024-01-07T00:20:58;13.50;;;12.50;;
57615;SDS011;43816;52.054;-9.494;2024-01-07T00:21:08;13.50;;;12.50;;
57615;SDS011;43816;52.054;-9.494;2024-01-07T00:21:21;13.38;;;12.38;;
57615;SDS011;43816;52.054;-9.494;2024-01-07T00:21:32;13.18;;;12.20;;
57615;SDS011;43816;52.054;-9.494;2024-01-07T00:21:42;13.63;;;12.63;;
57615;SDS011;43816;52.054;-9.494;2024-01-07T00:21:52;13.63;;;12.63;;
57615;SDS011;43816;52.054;-9.494;2024-01-07T00:22:12;13.57;;;12.50;;
57615;SDS011;43816;52.054;-9.494;2024-01-07T00:22:22;13.15;;;12.15;;
57615;SDS011;43816;52.054;-9.494;2024-01-07T00:22:38;13.20;;;12.20;;
57615;SDS011;43816;52.054;-9.494;2024-01-07T00:22:52;12.93;;;11.93;;
57615;SDS011;43816;52.054;-9.494;2024-01-07T00:23:08;12.93;;;11.98;;
57615;SDS011;43816;52.054;-9.494;2024-01-07T00:23:23;13.27;;;12.27;;
57615;SDS011;43816;52.054;-9.494;2024-01-07T00:23:36;13.07;;;12.07;;
57615;SDS011;43816;52.054;-9.494;2024-01-07T00:23:47;12.32;;;11.43;;
57615;SDS011;43816;52.054;-9.494;2024-01-07T00:23:57;12.17;;;11.27;;
57615;SDS011;43816;52.054;-9.494;2024-01-07T00:24:07;12.20;;;11.30;;
57615;SDS011;43816;52.054;-9.494;2024-01-07T00:24:18;12.35;;;11.45;;
57615;SDS011;43816;52.054;-9.494;2024-01-07T00:24:28;12.33;;;11.43;;
57615;SDS011;43816;52.054;-9.494;2024-01-07T00:24:38;12.80;;;11.90;;
57615;SDS011;43816;52.054;-9.494;2024-01-07T00:24:48;12.70;;;11.80;;
57615;SDS011;43816;52.054;-9.494;2024-01-07T00:24:59;12.65;;;11.75;;
57615;SDS011;43816;52.054;-9.494;2024-01-07T00:25:09;12.20;;;11.30;;
57615;SDS011;43816;52.054;-9.494;2024-01-07T00:25:19;12.13;;;11.23;;
57615;SDS011;43816;52.054;-9.494;2024-01-07T00:26:06;12.48;;;11.50;;
57615;SDS011;43816;52.054;-9.494;2024-01-07T00:26:16;12.40;;;11.50;;
57615;SDS011;43816;52.054;-9.494;2024-01-07T00:26:26;12.37;;;11.47;;
57615;SDS011;43816;52.054;-9.494;2024-01-07T00:26:37;12.40;;;11.50;;
57615;SDS011;43816;52.054;-9.494;2024-01-07T00:26:50;12.38;;;11.48;;
57615;SDS011;43816;52.054;-9.494;2024-01-07T00:27:00;12.90;;;11.90;;
57615;SDS011;43816;52.054;-9.494;2024-01-07T00:27:10;13.10;;;12.10;;
57615;SDS011;43816;52.054;-9.494;2024-01-07T00:27:20;13.13;;;12.13;;
57615;SDS011;43816;52.054;-9.494;2024-01-07T00:27:34;12.47;;;11.57;;
57615;SDS011;43816;52.054;-9.494;2024-01-07T00:27:44;12.48;;;11.57;;
57615;SDS011;43816;52.054;-9.494;2024-01-07T00:27:54;12.30;;;11.40;;
57615;SDS011;43816;52.054;-9.494;2024-01-07T00:28:04;12.53;;;11.57;;
57615;SDS011;43816;52.054;-9.494;2024-01-07T00:28:15;12.50;;;11.60;;
57615;SDS011;43816;52.054;-9.494;2024-01-07T00:28:25;12.70;;;11.80;;
57615;SDS011;43816;52.054;-9.494;2024-01-07T00:28:39;12.48;;;11.57;;
57615;SDS011;43816;52.054;-9.494;2024-01-07T00:28:49;12.70;;;11.70;;
57615;SDS011;43816;52.054;-9.494;2024-01-07T00:29:02;12.57;;;11.60;;
57615;SDS011;43816;52.054;-9.494;2024-01-07T00:29:15;12.45;;;11.55;;
57615;SDS011;43816;52.054;-9.494;2024-01-07T00:29:25;12.50;;;11.60;;
57615;SDS011;43816;52.054;-9.494;2024-01-07T00:29:35;12.80;;;11.80;;
57615;SDS011;43816;52.054;-9.494;2024-01-07T00:29:46;12.40;;;11.40;;
57615;SDS011;43816;52.054;-9.494;2024-01-07T00:29:56;12.20;;;11.30;;
57615;SDS011;43816;52.054;-9.494;2024-01-07T00:30:06;12.30;;;11.35;;
57615;SDS011;43816;52.054;-9.494;2024-01-07T00:30:18;12.43;;;11.53;;
57615;SDS011;43816;52.054;-9.494;2024-01-07T00:30:28;12.85;;;11.88;;
57615;SDS011;43816;52.054;-9.494;2024-01-07T00:30:41;12.88;;;11.90;;
57615;SDS011;43816;52.054;-9.494;2024-01-07T00:30:51;12.70;;;11.80;;
57615;SDS011;43816;52.054;-9.494;2024-01-07T00:31:02;12.50;;;11.60;;
57615;SDS011;43816;52.054;-9.494;2024-01-07T00:31:12;12.55;;;11.65;;
57615;SDS011;43816;52.054;-9.494;2024-01-07T00:31:22;12.40;;;11.50;;
57615;SDS011;43816;52.054;-9.494;2024-01-07T00:31:33;12.60;;;11.70;;
57615;SDS011;43816;52.054;-9.494;2024-01-07T00:31:43;12.80;;;11.90;;
57615;SDS011;43816;52.054;-9.494;2024-01-07T00:31:56;13.00;;;12.03;;
57615;SDS011;43816;52.054;-9.494;2024-01-07T00:32:07;13.00;;;12.00;;
57615;SDS011;43816;52.054;-9.494;2024-01-07T00:32:19;13.02;;;12.02;;
57615;SDS011;43816;52.054;-9.494;2024-01-07T00:32:32;13.13;;;12.13;;
57615;SDS011;43816;52.054;-9.494;2024-01-07T00:32:43;12.82;;;11.84;;
57615;SDS011;43816;52.054;-9.494;2024-01-07T00:32:56;12.43;;;11.53;;
57615;SDS011;43816;52.054;-9.494;2024-01-07T00:33:06;12.95;;;12.05;;
57615;SDS011;43816;52.054;-9.494;2024-01-07T00:33:16;13.17;;;12.23;;
57615;SDS011;43816;52.054;-9.494;2024-01-07T00:33:27;13.20;;;12.20;;
57615;SDS011;43816;52.054;-9.494;2024-01-07T00:33:37;13.00;;;12.00;;
57615;SDS011;43816;52.054;-9.494;2024-01-07T00:33:47;13.27;;;12.27;;
57615;SDS011;43816;52.054;-9.494;2024-01-07T00:34:01;13.20;;;12.20;;
57615;SDS011;43816;52.054;-9.494;2024-01-07T00:34:11;13.45;;;12.45;;
57615;SDS011;43816;52.054;-9.494;2024-01-07T00:34:55;13.25;;;12.25;;
57615;SDS011;43816;52.054;-9.494;2024-01-07T00:35:05;13.07;;;12.07;;
57615;SDS011;43816;52.054;-9.494;2024-01-07T00:35:16;12.95;;;11.95;;
57615;SDS011;43816;52.054;-9.494;2024-01-07T00:35:26;13.17;;;12.17;;
57615;SDS011;43816;52.054;-9.494;2024-01-07T00:35:42;13.32;;;12.32;;
57615;SDS011;43816;52.054;-9.494;2024-01-07T00:35:52;13.82;;;12.75;;
57615;SDS011;43816;52.054;-9.494;2024-01-07T00:36:03;13.77;;;12.77;;
57615;SDS011;43816;52.054;-9.494;2024-01-07T00:36:13;13.45;;;12.45;;
57615;SDS011;43816;52.054;-9.494;2024-01-07T00:36:23;13.37;;;12.43;;
57615;SDS011;43816;52.054;-9.494;2024-01-07T00:36:34;13.53;;;12.57;;
57615;SDS011;43816;52.054;-9.494;2024-01-07T00:36:44;13.77;;;12.77;;
57615;SDS011;43816;52.054;-9.494;2024-01-07T00:36:57;13.93;;;12.93;;
57615;SDS011;43816;52.054;-9.494;2024-01-07T00:37:10;13.90;;;12.90;;
57615;SDS011;43816;52.054;-9.494;2024-01-07T00:37:20;14.07;;;13.07;;
57615;SDS011;43816;52.054;-9.494;2024-01-07T00:37:41;13.95;;;12.95;;
57615;SDS011;43816;52.054;-9.494;2024-01-07T00:37:52;13.57;;;12.57;;
57615;SDS011;43816;52.054;-9.494;2024-01-07T00:38:02;13.43;;;12.43;;
57615;SDS011;43816;52.054;-9.494;2024-01-07T00:38:15;13.40;;;12.43;;
57615;SDS011;43816;52.054;-9.494;2024-01-07T00:38:26;13.40;;;12.50;;
57615;SDS011;43816;52.054;-9.494;2024-01-07T00:38:38;13.10;;;12.20;;
57615;SDS011;43816;52.054;-9.494;2024-01-07T00:38:51;13.02;;;12.13;;
57615;SDS011;43816;52.054;-9.494;2024-01-07T00:39:01;12.85;;;11.95;;
57615;SDS011;43816;52.054;-9.494;2024-01-07T00:39:15;12.90;;;12.00;;
57615;SDS011;43816;52.054;-9.494;2024-01-07T00:39:25;12.70;;;11.80;;
57615;SDS011;43816;52.054;-9.494;2024-01-07T00:39:39;12.77;;;11.87;;
57615;SDS011;43816;52.054;-9.494;2024-01-07T00:39:52;13.00;;;12.10;;
57615;SDS011;43816;52.054;-9.494;2024-01-07T00:40:02;13.15;;;12.25;;
57615;SDS011;43816;52.054;-9.494;2024-01-07T00:40:13;13.23;;;12.23;;
57615;SDS011;43816;52.054;-9.494;2024-01-07T00:40:29;13.43;;;12.43;;
57615;SDS011;43816;52.054;-9.494;2024-01-07T00:40:39;13.40;;;12.40;;
57615;SDS011;43816;52.054;-9.494;2024-01-07T00:40:49;13.37;;;12.37;;
57615;SDS011;43816;52.054;-9.494;2024-01-07T00:41:00;13.10;;;12.13;;
57615;SDS011;43816;52.054;-9.494;2024-01-07T00:41:13;12.97;;;12.00;;
57615;SDS011;43816;52.054;-9.494;2024-01-07T00:41:23;12.88;;;11.98;;
57615;SDS011;43816;52.054;-9.494;2024-01-07T00:41:33;12.87;;;11.93;;
57615;SDS011;43816;52.054;-9.494;2024-01-07T00:41:44;13.00;;;12.10;;
57615;SDS011;43816;52.054;-9.494;2024-01-07T00:42:01;13.10;;;12.20;;
57615;SDS011;43816;52.054;-9.494;2024-01-07T00:42:12;13.18;;;12.27;;
57615;SDS011;43816;52.054;-9.494;2024-01-07T00:42:22;13.10;;;12.20;;
57615;SDS011;43816;52.054;-9.494;2024-01-07T00:42:33;13.13;;;12.23;;
57615;SDS011;43816;52.054;-9.494;2024-01-07T00:42:43;13.10;;;12.20;;
57615;SDS011;43816;52.054;-9.494;2024-01-07T00:42:53;13.20;;;12.30;;
57615;SDS011;43816;52.054;-9.494;2024-01-07T00:43:12;13.13;;;12.20;;
57615;SDS011;43816;52.054;-9.494;2024-01-07T00:43:23;13.52;;;12.52;;
57615;SDS011;43816;52.054;-9.494;2024-01-07T00:43:33;13.43;;;12.43;;
57615;SDS011;43816;52.054;-9.494;2024-01-07T00:43:43;12.93;;;12.02;;
57615;SDS011;43816;52.054;-9.494;2024-01-07T00:43:54;13.10;;;12.10;;
57615;SDS011;43816;52.054;-9.494;2024-01-07T00:44:07;13.30;;;12.30;;
57615;SDS011;43816;52.054;-9.494;2024-01-07T00:44:22;13.43;;;12.40;;
57615;SDS011;43816;52.054;-9.494;2024-01-07T00:44:39;13.40;;;12.40;;
57615;SDS011;43816;52.054;-9.494;2024-01-07T00:44:49;13.25;;;12.25;;
57615;SDS011;43816;52.054;-9.494;2024-01-07T00:45:09;12.95;;;11.98;;
57615;SDS011;43816;52.054;-9.494;2024-01-07T00:45:23;12.87;;;11.97;;
57615;SDS011;43816;52.054;-9.494;2024-01-07T00:45:33;12.70;;;11.80;;
57615;SDS011;43816;52.054;-9.494;2024-01-07T00:45:43;12.70;;;11.80;;
57615;SDS011;43816;52.054;-9.494;2024-01-07T00:45:54;12.77;;;11.87;;
57615;SDS011;43816;52.054;-9.494;2024-01-07T00:46:10;13.30;;;12.33;;
57615;SDS011;43816;52.054;-9.494;2024-01-07T00:46:21;13.23;;;12.30;;
57615;SDS011;43816;52.054;-9.494;2024-01-07T00:46:31;13.38;;;12.45;;
57615;SDS011;43816;52.054;-9.494;2024-01-07T00:46:47;13.53;;;12.53;;
57615;SDS011;43816;52.054;-9.494;2024-01-07T00:47:08;13.55;;;12.55;;
57615;SDS011;43816;52.054;-9.494;2024-01-07T00:47:21;13.48;;;12.48;;
57615;SDS011;43816;52.054;-9.494;2024-01-07T00:47:31;13.40;;;12.40;;
57615;SDS011;43816;52.054;-9.494;2024-01-07T00:47:41;12.93;;;12.03;;
57615;SDS011;43816;52.054;-9.494;2024-01-07T00:47:52;12.98;;;12.07;;
57615;SDS011;43816;52.054;-9.494;2024-01-07T00:48:02;13.07;;;12.17;;
57615;SDS011;43816;52.054;-9.494;2024-01-07T00:48:13;13.27;;;12.35;;
57615;SDS011;43816;52.054;-9.494;2024-01-07T00:48:24;13.18;;;12.25;;
57615;SDS011;43816;52.054;-9.494;2024-01-07T00:48:34;12.83;;;11.93;;
57615;SDS011;43816;52.054;-9.494;2024-01-07T00:48:44;12.60;;;11.70;;
57615;SDS011;43816;52.054;-9.494;2024-01-07T00:48:54;12.60;;;11.70;;
57615;SDS011;43816;52.054;-9.494;2024-01-07T00:49:05;12.73;;;11.83;;
57615;SDS011;43816;52.054;-9.494;2024-01-07T00:49:15;12.88;;;11.98;;
57615;SDS011;43816;52.054;-9.494;2024-01-07T00:49:29;12.80;;;11.90;;
57615;SDS011;43816;52.054;-9.494;2024-01-07T00:49:39;13.15;;;12.18;;
57615;SDS011;43816;52.054;-9.494;2024-01-07T00:49:49;13.02;;;12.02;;
57615;SDS011;43816;52.054;-9.494;2024-01-07T00:50:00;12.87;;;11.87;;
57615;SDS011;43816;52.054;-9.494;2024-01-07T00:50:10;12.30;;;11.48;;
57615;SDS011;43816;52.054;-9.494;2024-01-07T00:50:20;12.53;;;11.63;;
57615;SDS011;43816;52.054;-9.494;2024-01-07T00:50:31;12.77;;;11.87;;
57615;SDS011;43816;52.054;-9.494;2024-01-07T00:50:42;12.75;;;11.82;;
57615;SDS011;43816;52.054;-9.494;2024-01-07T00:50:52;12.85;;;11.95;;
57615;SDS011;43816;52.054;-9.494;2024-01-07T00:51:05;12.70;;;11.80;;
57615;SDS011;43816;52.054;-9.494;2024-01-07T00:51:15;12.60;;;11.70;;
57615;SDS011;43816;52.054;-9.494;2024-01-07T00:51:26;12.50;;;11.60;;
57615;SDS011;43816;52.054;-9.494;2024-01-07T00:51:36;12.40;;;11.50;;
57615;SDS011;43816;52.054;-9.494;2024-01-07T00:51:46;12.13;;;11.33;;
57615;SDS011;43816;52.054;-9.494;2024-01-07T00:51:56;11.90;;;11.10;;
57615;SDS011;43816;52.054;-9.494;2024-01-07T00:52:07;12.07;;;11.27;;
57615;SDS011;43816;52.054;-9.494;2024-01-07T00:52:17;12.23;;;11.43;;
57615;SDS011;43816;52.054;-9.494;2024-01-07T00:52:27;12.45;;;11.65;;
57615;SDS011;43816;52.054;-9.494;2024-01-07T00:52:38;12.50;;;11.60;;
57615;SDS011;43816;52.054;-9.494;2024-01-07T00:52:48;12.60;;;11.70;;
57615;SDS011;43816;52.054;-9.494;2024-01-07T00:52:58;12.35;;;11.45;;
57615;SDS011;43816;52.054;-9.494;2024-01-07T00:53:09;12.30;;;11.40;;
57615;SDS011;43816;52.054;-9.494;2024-01-07T00:53:19;12.27;;;11.40;;
57615;SDS011;43816;52.054;-9.494;2024-01-07T00:53:29;12.33;;;11.43;;
57615;SDS011;43816;52.054;-9.494;2024-01-07T00:53:39;11.77;;;10.97;;
57615;SDS011;43816;52.054;-9.494;2024-01-07T00:53:50;11.40;;;10.60;;
57615;SDS011;43816;52.054;-9.494;2024-01-07T00:54:00;11.50;;;10.70;;
57615;SDS011;43816;52.054;-9.494;2024-01-07T00:54:10;11.80;;;10.93;;
57615;SDS011;43816;52.054;-9.494;2024-01-07T00:54:21;12.37;;;11.47;;
57615;SDS011;43816;52.054;-9.494;2024-01-07T00:54:31;12.27;;;11.40;;
57615;SDS011;43816;52.054;-9.494;2024-01-07T00:54:41;12.38;;;11.52;;
57615;SDS011;43816;52.054;-9.494;2024-01-07T00:54:51;12.03;;;11.20;;
57615;SDS011;43816;52.054;-9.494;2024-01-07T00:55:02;12.10;;;11.20;;
57615;SDS011;43816;52.054;-9.494;2024-01-07T00:55:16;12.02;;;11.12;;
57615;SDS011;43816;52.054;-9.494;2024-01-07T00:55:27;12.20;;;11.30;;
57615;SDS011;43816;52.054;-9.494;2024-01-07T00:55:37;12.23;;;11.35;;
57615;SDS011;43816;52.054;-9.494;2024-01-07T00:55:47;12.40;;;11.50;;
57615;SDS011;43816;52.054;-9.494;2024-01-07T00:56:00;12.30;;;11.40;;
57615;SDS011;43816;52.054;-9.494;2024-01-07T00:56:11;12.05;;;11.23;;
57615;SDS011;43816;52.054;-9.494;2024-01-07T00:56:21;12.20;;;11.30;;
57615;SDS011;43816;52.054;-9.494;2024-01-07T00:56:35;12.50;;;11.60;;
57615;SDS011;43816;52.054;-9.494;2024-01-07T00:56:45;12.30;;;11.40;;
57615;SDS011;43816;52.054;-9.494;2024-01-07T00:56:55;12.57;;;11.67;;
57615;SDS011;43816;52.054;-9.494;2024-01-07T00:57:06;12.55;;;11.65;;
57615;SDS011;43816;52.054;-9.494;2024-01-07T00:57:16;12.53;;;11.63;;
57615;SDS011;43816;52.054;-9.494;2024-01-07T00:57:26;12.43;;;11.53;;
57615;SDS011;43816;52.054;-9.494;2024-01-07T00:57:37;12.30;;;11.40;;
57615;SDS011;43816;52.054;-9.494;2024-01-07T00:57:47;12.13;;;11.23;;
57615;SDS011;43816;52.054;-9.494;2024-01-07T00:57:57;11.73;;;10.90;;
57615;SDS011;43816;52.054;-9.494;2024-01-07T00:58:07;12.20;;;11.27;;
57615;SDS011;43816;52.054;-9.494;2024-01-07T00:58:18;12.63;;;11.63;;
57615;SDS011;43816;52.054;-9.494;2024-01-07T00:58:28;12.73;;;11.73;;
57615;SDS011;43816;52.054;-9.494;2024-01-07T00:58:38;12.32;;;11.43;;
57615;SDS011;43816;52.054;-9.494;2024-01-07T00:58:48;12.00;;;11.20;;
57615;SDS011;43816;52.054;-9.494;2024-01-07T00:58:59;11.97;;;11.17;;
57615;SDS011;43816;52.054;-9.494;2024-01-07T00:59:09;11.80;;;11.00;;
57615;SDS011;43816;52.054;-9.494;2024-01-07T00:59:19;12.02;;;11.23;;
57615;SDS011;43816;52.054;-9.494;2024-01-07T00:59:29;12.23;;;11.43;;
57615;SDS011;43816;52.054;-9.494;2024-01-07T00:59:43;12.27;;;11.47;;
57615;SDS011;43816;52.054;-9.494;2024-01-07T00:59:53;12.20;;;11.30;;
57615;SDS011;43816;52.054;-9.494;2024-01-07T01:00:06;11.95;;;11.05;;
57615;SDS011;43816;52.054;-9.494;2024-01-07T01:00:17;12.07;;;11.18;;
57615;SDS011;43816;52.054;-9.494;2024-01-07T01:00:28;12.38;;;11.48;;
57615;SDS011;43816;52.054;-9.494;2024-01-07T01:00:38;11.93;;;11.13;;
57615;SDS011;43816;52.054;-9.494;2024-01-07T01:00:49;12.02;;;11.20;;
57615;SDS011;43816;52.054;-9.494;2024-01-07T01:00:59;12.13;;;11.23;;
57615;SDS011;43816;52.054;-9.494;2024-01-07T01:01:09;12.43;;;11.53;;
57615;SDS011;43816;52.054;-9.494;2024-01-07T01:01:20;12.25;;;11.35;;
57615;SDS011;43816;52.054;-9.494;2024-01-07T01:01:30;11.93;;;11.03;;
57615;SDS011;43816;52.054;-9.494;2024-01-07T01:01:41;11.75;;;10.93;;
57615;SDS011;43816;52.054;-9.494;2024-01-07T01:01:51;11.63;;;10.83;;
57615;SDS011;43816;52.054;-9.494;2024-01-07T01:02:01;11.80;;;11.00;;
57615;SDS011;43816;52.054;-9.494;2024-01-07T01:02:12;11.70;;;10.90;;
57615;SDS011;43816;52.054;-9.494;2024-01-07T01:02:22;12.03;;;11.13;;
57615;SDS011;43816;52.054;-9.494;2024-01-07T01:02:32;11.85;;;11.00;;
57615;SDS011;43816;52.054;-9.494;2024-01-07T01:02:43;11.93;;;11.03;;
57615;SDS011;43816;52.054;-9.494;2024-01-07T01:02:53;11.60;;;10.80;;
57615;SDS011;43816;52.054;-9.494;2024-01-07T01:03:07;11.87;;;11.07;;
57615;SDS011;43816;52.054;-9.494;2024-01-07T01:03:17;12.05;;;11.15;;
57615;SDS011;43816;52.054;-9.494;2024-01-07T01:03:27;12.15;;;11.25;;
57615;SDS011;43816;52.054;-9.494;2024-01-07T01:03:38;12.17;;;11.27;;
57615;SDS011;43816;52.054;-9.494;2024-01-07T01:03:48;11.83;;;11.00;;
57615;SDS011;43816;52.054;-9.494;2024-01-07T01:03:58;11.82;;;11.02;;
57615;SDS011;43816;52.054;-9.494;2024-01-07T01:04:08;11.83;;;11.03;;
57615;SDS011;43816;52.054;-9.494;2024-01-07T01:04:19;12.07;;;11.17;;
57615;SDS011;43816;52.054;-9.494;2024-01-07T01:04:29;11.85;;;10.95;;
57615;SDS011;43816;52.054;-9.494;2024-01-07T01:04:39;11.80;;;10.90;;
57615;SDS011;43816;52.054;-9.494;2024-01-07T01:04:49;11.60;;;10.80;;
57615;SDS011;43816;52.054;-9.494;2024-01-07T01:05:00;11.40;;;10.60;;
57615;SDS011;43816;52.054;-9.494;2024-01-07T01:05:10;11.37;;;10.57;;
57615;SDS011;43816;52.054;-9.494;2024-01-07T01:05:20;11.33;;;10.53;;
57615;SDS011;43816;52.054;-9.494;2024-01-07T01:05:33;11.30;;;10.50;;
57615;SDS011;43816;52.054;-9.494;2024-01-07T01:05:44;11.30;;;10.50;;
57615;SDS011;43816;52.054;-9.494;2024-01-07T01:05:54;11.40;;;10.60;;
57615;SDS011;43816;52.054;-9.494;2024-01-07T01:06:04;11.40;;;10.60;;
57615;SDS011;43816;52.054;-9.494;2024-01-07T01:06:14;11.47;;;10.67;;
57615;SDS011;43816;52.054;-9.494;2024-01-07T01:06:28;11.23;;;10.43;;
57615;SDS011;43816;52.054;-9.494;2024-01-07T01:06:38;11.20;;;10.40;;
57615;SDS011;43816;52.054;-9.494;2024-01-07T01:06:51;11.50;;;10.60;;
57615;SDS011;43816;52.054;-9.494;2024-01-07T01:07:01;11.10;;;10.30;;
57615;SDS011;43816;52.054;-9.494;2024-01-07T01:07:12;11.30;;;10.50;;
57615;SDS011;43816;52.054;-9.494;2024-01-07T01:07:22;11.33;;;10.53;;